• Join FlightAware (Why Join?)
  • Login
  • US Flag 
01:07AM EDT


 

Airport Tracker/Info


-or-


 

Live Flight TrackerFlight Track Log ✈ EGF3149 ✈ 17-Jul-2013 ✈ KORD - KPIA

Flight Track Log - Related Links

Times and Time Zones

All times are in EDT time to prevent confusion due to time zone crossing. See the EGF3149 flight status page for this flight to view local times or setup timezone preferences in your user account.

Time Position Orientation Groundspeed Altitude Reporting Facility
EDT Latitude Longitude Course Direction KTS MPH feet Rate Location/Type
10:43AM 42.0000 -87.9667 270° West 195 224 2,400  Level Chicago TRACON
10:44AM 42.0000 -88.0500 270° West 248 285 4,500 2,040 Climbing Chicago TRACON
10:45AM 41.9667 -88.3250 270° West  Level FlightAware Approximate
10:45AM 41.9872 -88.1672 262° West 259 298 7,100  Level Chicago Center
10:46AM 41.9667 -88.4667 270° West  Level FlightAware Approximate
10:46AM 41.9853 -88.2689 269° West 271 312 10,100  Level Chicago Center
10:47AM 41.9667 -88.6083 270° West  Level FlightAware Approximate
10:47AM 41.9664 -88.3900 258° West 293 337 12,600  Level Chicago Center
10:48AM 41.9667 -88.7500 270° West  Level FlightAware Approximate
10:48AM 41.9339 -88.4928 247° West 301 346 14,500  Level Chicago Center
10:49AM 41.8919 -88.6014 243° Southwest 327 376 15,600 660 Climbing Chicago Center
10:50AM 41.8372 -88.7161 237° Southwest 365 420 15,900 180 Climbing Chicago Center
10:51AM 41.7811 -88.8386 238° Southwest 385 443 16,000  Climbing Chicago Center
10:52AM 41.7144 -88.9858 239° Southwest 389 448 16,000  Level Chicago Center
10:53AM 41.6569 -89.1097 238° Southwest 393 452 16,000  Level Chicago Center
10:54AM 41.5894 -89.2228 231° Southwest 401 461 16,000  Level Chicago Center
10:55AM 41.4964 -89.3025 213° Southwest 395 455 16,000  Level Chicago Center
10:56AM 41.4017 -89.3792 211° Southwest 399 459 16,000 -1,260 Level Chicago Center
10:57AM 41.2975 -89.4231 198° South 391 450 13,400 -2,820 Descending Chicago Center
10:58AM 41.1764 -89.4706 196° South 380 437 10,200 -1,680 Descending Chicago Center
10:59AM 41.0822 -89.5053 196° South 360 414 10,000 -420 Descending Chicago Center
11:00AM 40.9992 -89.5025 179° South 302 348 9,400 -600 Descending Chicago Center